sensor_id;sensor_type;location;lat;lon;timestamp;P1;durP1;ratioP1;P2;durP2;ratioP2
49502;SDS011;35409;48.776;9.204;2023-02-25T00:02:12;13.10;;;6.20;;
49502;SDS011;35409;48.776;9.204;2023-02-25T00:04:38;9.98;;;7.05;;
49502;SDS011;35409;48.776;9.204;2023-02-25T00:07:06;12.82;;;6.80;;
49502;SDS011;35409;48.776;9.204;2023-02-25T00:09:32;9.77;;;6.75;;
49502;SDS011;35409;48.776;9.204;2023-02-25T00:11:57;12.05;;;7.03;;
49502;SDS011;35409;48.776;9.204;2023-02-25T00:14:23;11.57;;;7.57;;
49502;SDS011;35409;48.776;9.204;2023-02-25T00:16:49;12.73;;;7.50;;
49502;SDS011;35409;48.776;9.204;2023-02-25T00:19:15;19.00;;;8.38;;
49502;SDS011;35409;48.776;9.204;2023-02-25T00:21:41;15.68;;;7.82;;
49502;SDS011;35409;48.776;9.204;2023-02-25T00:24:06;13.38;;;7.55;;
49502;SDS011;35409;48.776;9.204;2023-02-25T00:26:32;15.35;;;7.82;;
49502;SDS011;35409;48.776;9.204;2023-02-25T00:28:58;13.38;;;8.40;;
49502;SDS011;35409;48.776;9.204;2023-02-25T00:31:24;15.70;;;7.95;;
49502;SDS011;35409;48.776;9.204;2023-02-25T00:33:50;14.70;;;8.52;;
49502;SDS011;35409;48.776;9.204;2023-02-25T00:36:17;15.80;;;8.73;;
49502;SDS011;35409;48.776;9.204;2023-02-25T00:38:50;17.00;;;8.48;;
49502;SDS011;35409;48.776;9.204;2023-02-25T00:41:19;17.08;;;8.90;;
49502;SDS011;35409;48.776;9.204;2023-02-25T00:43:53;17.00;;;8.40;;
49502;SDS011;35409;48.776;9.204;2023-02-25T00:46:21;15.63;;;9.15;;
49502;SDS011;35409;48.776;9.204;2023-02-25T00:48:48;12.20;;;8.15;;
49502;SDS011;35409;48.776;9.204;2023-02-25T00:51:15;14.65;;;8.88;;
49502;SDS011;35409;48.776;9.204;2023-02-25T00:53:43;19.65;;;9.10;;
49502;SDS011;35409;48.776;9.204;2023-02-25T00:56:10;16.25;;;7.55;;
49502;SDS011;35409;48.776;9.204;2023-02-25T00:58:42;14.60;;;7.80;;
49502;SDS011;35409;48.776;9.204;2023-02-25T01:01:19;16.88;;;7.40;;
49502;SDS011;35409;48.776;9.204;2023-02-25T01:03:57;15.93;;;7.50;;
49502;SDS011;35409;48.776;9.204;2023-02-25T01:06:24;14.05;;;7.53;;
49502;SDS011;35409;48.776;9.204;2023-02-25T01:08:51;11.70;;;6.82;;
49502;SDS011;35409;48.776;9.204;2023-02-25T01:11:18;12.68;;;7.18;;
49502;SDS011;35409;48.776;9.204;2023-02-25T01:13:51;13.73;;;6.95;;
49502;SDS011;35409;48.776;9.204;2023-02-25T01:16:21;14.35;;;6.93;;
49502;SDS011;35409;48.776;9.204;2023-02-25T01:18:50;9.02;;;5.63;;
49502;SDS011;35409;48.776;9.204;2023-02-25T01:21:18;9.80;;;5.53;;
49502;SDS011;35409;48.776;9.204;2023-02-25T01:23:45;9.07;;;5.90;;
49502;SDS011;35409;48.776;9.204;2023-02-25T01:26:12;14.60;;;5.22;;
49502;SDS011;35409;48.776;9.204;2023-02-25T01:28:39;12.00;;;5.65;;
49502;SDS011;35409;48.776;9.204;2023-02-25T01:31:05;8.48;;;5.20;;
49502;SDS011;35409;48.776;9.204;2023-02-25T01:33:32;11.15;;;6.07;;
49502;SDS011;35409;48.776;9.204;2023-02-25T01:36:02;14.32;;;5.75;;
49502;SDS011;35409;48.776;9.204;2023-02-25T01:38:31;8.75;;;5.07;;
49502;SDS011;35409;48.776;9.204;2023-02-25T01:40:58;7.07;;;4.53;;
49502;SDS011;35409;48.776;9.204;2023-02-25T01:43:25;9.90;;;5.53;;
49502;SDS011;35409;48.776;9.204;2023-02-25T01:45:52;9.63;;;5.55;;
49502;SDS011;35409;48.776;9.204;2023-02-25T01:48:19;8.60;;;4.68;;
49502;SDS011;35409;48.776;9.204;2023-02-25T01:50:54;7.82;;;5.03;;
49502;SDS011;35409;48.776;9.204;2023-02-25T01:53:28;9.52;;;5.43;;
49502;SDS011;35409;48.776;9.204;2023-02-25T01:55:57;11.88;;;5.38;;
49502;SDS011;35409;48.776;9.204;2023-02-25T01:58:24;6.40;;;4.00;;
49502;SDS011;35409;48.776;9.204;2023-02-25T02:00:51;8.38;;;4.18;;
49502;SDS011;35409;48.776;9.204;2023-02-25T02:03:27;7.22;;;4.03;;
49502;SDS011;35409;48.776;9.204;2023-02-25T02:08:43;6.97;;;3.95;;
49502;SDS011;35409;48.776;9.204;2023-02-25T02:11:10;9.10;;;4.00;;
49502;SDS011;35409;48.776;9.204;2023-02-25T02:13:37;9.15;;;3.97;;
49502;SDS011;35409;48.776;9.204;2023-02-25T02:18:55;6.95;;;3.53;;
49502;SDS011;35409;48.776;9.204;2023-02-25T02:24:18;6.45;;;3.40;;
49502;SDS011;35409;48.776;9.204;2023-02-25T02:26:57;10.43;;;3.72;;
49502;SDS011;35409;48.776;9.204;2023-02-25T02:32:20;5.35;;;3.03;;
49502;SDS011;35409;48.776;9.204;2023-02-25T02:34:59;5.78;;;3.42;;
49502;SDS011;35409;48.776;9.204;2023-02-25T02:37:41;8.07;;;3.63;;
49502;SDS011;35409;48.776;9.204;2023-02-25T02:40:55;9.98;;;3.50;;
49502;SDS011;35409;48.776;9.204;2023-02-25T02:46:04;6.65;;;4.05;;
49502;SDS011;35409;48.776;9.204;2023-02-25T02:48:46;10.60;;;4.35;;
49502;SDS011;35409;48.776;9.204;2023-02-25T02:51:20;7.68;;;3.85;;
49502;SDS011;35409;48.776;9.204;2023-02-25T02:53:54;8.65;;;3.83;;
49502;SDS011;35409;48.776;9.204;2023-02-25T02:56:23;6.72;;;3.63;;
49502;SDS011;35409;48.776;9.204;2023-02-25T02:58:56;10.23;;;4.07;;
49502;SDS011;35409;48.776;9.204;2023-02-25T03:01:40;8.98;;;3.67;;
49502;SDS011;35409;48.776;9.204;2023-02-25T03:04:10;6.88;;;3.50;;
49502;SDS011;35409;48.776;9.204;2023-02-25T03:06:47;7.80;;;3.58;;
49502;SDS011;35409;48.776;9.204;2023-02-25T03:09:58;7.15;;;2.72;;
49502;SDS011;35409;48.776;9.204;2023-02-25T03:12:04;8.25;;;3.40;;
49502;SDS011;35409;48.776;9.204;2023-02-25T03:14:30;6.55;;;3.72;;
49502;SDS011;35409;48.776;9.204;2023-02-25T03:16:58;12.07;;;3.85;;
49502;SDS011;35409;48.776;9.204;2023-02-25T03:19:41;7.50;;;3.35;;
49502;SDS011;35409;48.776;9.204;2023-02-25T03:22:17;7.07;;;3.13;;
49502;SDS011;35409;48.776;9.204;2023-02-25T03:24:53;6.57;;;3.40;;
49502;SDS011;35409;48.776;9.204;2023-02-25T03:27:26;8.27;;;3.28;;
49502;SDS011;35409;48.776;9.204;2023-02-25T03:30:02;8.85;;;3.53;;
49502;SDS011;35409;48.776;9.204;2023-02-25T03:32:39;6.85;;;2.97;;
49502;SDS011;35409;48.776;9.204;2023-02-25T03:35:09;5.72;;;2.72;;
49502;SDS011;35409;48.776;9.204;2023-02-25T03:37:37;5.88;;;3.45;;
49502;SDS011;35409;48.776;9.204;2023-02-25T03:40:06;7.80;;;2.60;;
49502;SDS011;35409;48.776;9.204;2023-02-25T03:42:40;6.53;;;2.50;;
49502;SDS011;35409;48.776;9.204;2023-02-25T03:45:18;7.13;;;3.13;;
49502;SDS011;35409;48.776;9.204;2023-02-25T03:47:45;8.63;;;3.05;;
49502;SDS011;35409;48.776;9.204;2023-02-25T03:50:17;7.97;;;2.70;;
49502;SDS011;35409;48.776;9.204;2023-02-25T03:52:49;6.38;;;2.40;;
49502;SDS011;35409;48.776;9.204;2023-02-25T03:55:15;7.35;;;2.20;;
49502;SDS011;35409;48.776;9.204;2023-02-25T03:57:43;6.15;;;2.58;;
49502;SDS011;35409;48.776;9.204;2023-02-25T04:00:16;7.97;;;2.17;;
49502;SDS011;35409;48.776;9.204;2023-02-25T04:02:43;5.45;;;2.25;;
49502;SDS011;35409;48.776;9.204;2023-02-25T04:05:11;5.82;;;2.05;;
49502;SDS011;35409;48.776;9.204;2023-02-25T04:07:37;7.40;;;1.55;;
49502;SDS011;35409;48.776;9.204;2023-02-25T04:10:04;9.18;;;1.90;;
49502;SDS011;35409;48.776;9.204;2023-02-25T04:12:32;4.65;;;1.60;;
49502;SDS011;35409;48.776;9.204;2023-02-25T04:14:57;4.78;;;1.80;;
49502;SDS011;35409;48.776;9.204;2023-02-25T04:17:23;6.57;;;1.77;;
49502;SDS011;35409;48.776;9.204;2023-02-25T04:19:48;8.25;;;1.73;;
49502;SDS011;35409;48.776;9.204;2023-02-25T04:22:14;6.50;;;1.75;;
49502;SDS011;35409;48.776;9.204;2023-02-25T04:24:40;11.00;;;1.88;;
49502;SDS011;35409;48.776;9.204;2023-02-25T04:27:05;6.25;;;1.40;;
49502;SDS011;35409;48.776;9.204;2023-02-25T04:29:31;5.53;;;1.25;;
49502;SDS011;35409;48.776;9.204;2023-02-25T04:31:57;8.73;;;1.45;;
49502;SDS011;35409;48.776;9.204;2023-02-25T04:34:22;6.45;;;1.15;;
49502;SDS011;35409;48.776;9.204;2023-02-25T04:36:48;7.13;;;1.48;;
49502;SDS011;35409;48.776;9.204;2023-02-25T04:39:14;5.68;;;1.73;;
49502;SDS011;35409;48.776;9.204;2023-02-25T04:41:42;10.55;;;1.50;;
49502;SDS011;35409;48.776;9.204;2023-02-25T04:44:08;5.88;;;1.20;;
49502;SDS011;35409;48.776;9.204;2023-02-25T04:46:36;4.88;;;1.48;;
49502;SDS011;35409;48.776;9.204;2023-02-25T04:49:04;6.18;;;1.13;;
49502;SDS011;35409;48.776;9.204;2023-02-25T04:51:30;7.72;;;1.40;;
49502;SDS011;35409;48.776;9.204;2023-02-25T04:53:56;6.15;;;1.20;;
49502;SDS011;35409;48.776;9.204;2023-02-25T04:56:22;4.45;;;1.05;;
49502;SDS011;35409;48.776;9.204;2023-02-25T04:58:48;5.45;;;1.40;;
49502;SDS011;35409;48.776;9.204;2023-02-25T05:01:14;6.60;;;1.45;;
49502;SDS011;35409;48.776;9.204;2023-02-25T05:03:40;8.27;;;1.48;;
49502;SDS011;35409;48.776;9.204;2023-02-25T05:06:06;8.20;;;1.63;;
49502;SDS011;35409;48.776;9.204;2023-02-25T05:08:33;6.80;;;1.20;;
49502;SDS011;35409;48.776;9.204;2023-02-25T05:11:00;3.38;;;1.08;;
49502;SDS011;35409;48.776;9.204;2023-02-25T05:13:26;5.03;;;1.70;;
49502;SDS011;35409;48.776;9.204;2023-02-25T05:16:01;5.35;;;1.08;;
49502;SDS011;35409;48.776;9.204;2023-02-25T05:18:31;3.72;;;1.55;;
49502;SDS011;35409;48.776;9.204;2023-02-25T05:21:00;6.97;;;1.42;;
49502;SDS011;35409;48.776;9.204;2023-02-25T05:23:25;3.67;;;0.90;;
49502;SDS011;35409;48.776;9.204;2023-02-25T05:25:51;7.07;;;1.20;;
49502;SDS011;35409;48.776;9.204;2023-02-25T05:28:18;8.10;;;1.45;;
49502;SDS011;35409;48.776;9.204;2023-02-25T05:30:43;9.70;;;1.20;;
49502;SDS011;35409;48.776;9.204;2023-02-25T05:33:09;4.85;;;1.05;;
49502;SDS011;35409;48.776;9.204;2023-02-25T05:35:37;7.18;;;1.30;;
49502;SDS011;35409;48.776;9.204;2023-02-25T05:38:04;7.07;;;1.42;;
49502;SDS011;35409;48.776;9.204;2023-02-25T05:40:30;4.35;;;1.13;;
49502;SDS011;35409;48.776;9.204;2023-02-25T05:42:56;5.70;;;0.93;;
49502;SDS011;35409;48.776;9.204;2023-02-25T05:45:21;4.88;;;0.70;;
49502;SDS011;35409;48.776;9.204;2023-02-25T05:47:47;5.97;;;0.55;;
49502;SDS011;35409;48.776;9.204;2023-02-25T05:50:12;7.88;;;1.52;;
49502;SDS011;35409;48.776;9.204;2023-02-25T05:52:38;4.90;;;1.15;;
49502;SDS011;35409;48.776;9.204;2023-02-25T05:55:04;4.40;;;0.75;;
49502;SDS011;35409;48.776;9.204;2023-02-25T05:57:32;7.10;;;1.20;;
49502;SDS011;35409;48.776;9.204;2023-02-25T05:59:58;6.85;;;1.02;;
49502;SDS011;35409;48.776;9.204;2023-02-25T06:02:25;5.35;;;0.80;;
49502;SDS011;35409;48.776;9.204;2023-02-25T06:04:52;8.13;;;1.20;;
49502;SDS011;35409;48.776;9.204;2023-02-25T06:07:18;8.70;;;0.68;;
49502;SDS011;35409;48.776;9.204;2023-02-25T06:09:43;4.05;;;0.88;;
49502;SDS011;35409;48.776;9.204;2023-02-25T06:12:09;5.70;;;1.00;;
49502;SDS011;35409;48.776;9.204;2023-02-25T06:14:35;5.88;;;0.95;;
49502;SDS011;35409;48.776;9.204;2023-02-25T06:17:01;4.47;;;0.60;;
49502;SDS011;35409;48.776;9.204;2023-02-25T06:19:26;6.50;;;0.52;;
49502;SDS011;35409;48.776;9.204;2023-02-25T06:21:53;5.88;;;0.90;;
49502;SDS011;35409;48.776;9.204;2023-02-25T06:24:22;4.15;;;0.68;;
49502;SDS011;35409;48.776;9.204;2023-02-25T06:26:48;4.07;;;1.30;;
49502;SDS011;35409;48.776;9.204;2023-02-25T06:29:14;4.88;;;0.90;;
49502;SDS011;35409;48.776;9.204;2023-02-25T06:31:40;8.25;;;1.02;;
49502;SDS011;35409;48.776;9.204;2023-02-25T06:34:06;5.50;;;1.00;;
49502;SDS011;35409;48.776;9.204;2023-02-25T06:36:31;5.63;;;1.02;;
49502;SDS011;35409;48.776;9.204;2023-02-25T06:38:57;8.00;;;0.90;;
49502;SDS011;35409;48.776;9.204;2023-02-25T06:41:23;6.78;;;0.88;;
49502;SDS011;35409;48.776;9.204;2023-02-25T06:43:49;5.50;;;0.80;;
49502;SDS011;35409;48.776;9.204;2023-02-25T06:46:16;6.35;;;1.10;;
49502;SDS011;35409;48.776;9.204;2023-02-25T06:48:44;3.72;;;0.80;;
49502;SDS011;35409;48.776;9.204;2023-02-25T06:51:10;7.18;;;1.38;;
49502;SDS011;35409;48.776;9.204;2023-02-25T06:53:37;5.28;;;1.27;;
49502;SDS011;35409;48.776;9.204;2023-02-25T06:56:04;5.75;;;1.33;;
49502;SDS011;35409;48.776;9.204;2023-02-25T06:58:30;7.10;;;1.60;;
49502;SDS011;35409;48.776;9.204;2023-02-25T07:00:56;4.75;;;1.23;;
49502;SDS011;35409;48.776;9.204;2023-02-25T07:03:23;4.50;;;1.25;;
49502;SDS011;35409;48.776;9.204;2023-02-25T07:05:49;10.55;;;1.85;;
49502;SDS011;35409;48.776;9.204;2023-02-25T07:08:15;5.18;;;1.13;;
49502;SDS011;35409;48.776;9.204;2023-02-25T07:10:40;4.95;;;1.15;;
49502;SDS011;35409;48.776;9.204;2023-02-25T07:13:07;4.40;;;1.00;;
49502;SDS011;35409;48.776;9.204;2023-02-25T07:15:33;3.67;;;0.98;;
49502;SDS011;35409;48.776;9.204;2023-02-25T07:17:59;7.57;;;1.35;;
49502;SDS011;35409;48.776;9.204;2023-02-25T07:20:25;7.32;;;1.33;;
49502;SDS011;35409;48.776;9.204;2023-02-25T07:22:51;5.30;;;1.00;;
49502;SDS011;35409;48.776;9.204;2023-02-25T07:25:16;3.33;;;1.02;;
49502;SDS011;35409;48.776;9.204;2023-02-25T07:27:43;3.50;;;0.88;;
49502;SDS011;35409;48.776;9.204;2023-02-25T07:30:09;3.65;;;1.00;;
49502;SDS011;35409;48.776;9.204;2023-02-25T07:32:37;4.47;;;1.20;;
49502;SDS011;35409;48.776;9.204;2023-02-25T07:35:03;3.28;;;0.90;;
49502;SDS011;35409;48.776;9.204;2023-02-25T07:37:29;4.07;;;1.02;;
49502;SDS011;35409;48.776;9.204;2023-02-25T07:39:55;7.32;;;1.13;;
49502;SDS011;35409;48.776;9.204;2023-02-25T07:42:23;2.92;;;1.50;;
49502;SDS011;35409;48.776;9.204;2023-02-25T07:44:50;5.25;;;1.08;;
49502;SDS011;35409;48.776;9.204;2023-02-25T07:47:16;7.47;;;0.80;;
49502;SDS011;35409;48.776;9.204;2023-02-25T07:49:42;5.03;;;2.15;;
49502;SDS011;35409;48.776;9.204;2023-02-25T07:52:07;6.32;;;1.30;;
49502;SDS011;35409;48.776;9.204;2023-02-25T07:54:33;5.32;;;1.08;;
49502;SDS011;35409;48.776;9.204;2023-02-25T07:56:58;7.18;;;1.17;;
49502;SDS011;35409;48.776;9.204;2023-02-25T07:59:24;7.50;;;0.90;;
49502;SDS011;35409;48.776;9.204;2023-02-25T08:01:50;2.05;;;0.63;;
49502;SDS011;35409;48.776;9.204;2023-02-25T08:04:15;3.75;;;0.98;;
49502;SDS011;35409;48.776;9.204;2023-02-25T08:06:41;5.38;;;1.08;;
49502;SDS011;35409;48.776;9.204;2023-02-25T08:09:07;5.18;;;1.08;;
49502;SDS011;35409;48.776;9.204;2023-02-25T08:11:36;2.77;;;0.90;;
49502;SDS011;35409;48.776;9.204;2023-02-25T08:14:02;4.80;;;1.00;;
49502;SDS011;35409;48.776;9.204;2023-02-25T08:16:28;3.95;;;1.05;;
49502;SDS011;35409;48.776;9.204;2023-02-25T08:18:54;13.23;;;1.25;;
49502;SDS011;35409;48.776;9.204;2023-02-25T08:21:20;4.93;;;0.85;;
49502;SDS011;35409;48.776;9.204;2023-02-25T08:23:47;5.90;;;1.35;;
49502;SDS011;35409;48.776;9.204;2023-02-25T08:26:13;5.72;;;0.88;;
49502;SDS011;35409;48.776;9.204;2023-02-25T08:28:41;4.05;;;0.70;;
49502;SDS011;35409;48.776;9.204;2023-02-25T08:31:08;4.30;;;1.13;;
49502;SDS011;35409;48.776;9.204;2023-02-25T08:33:36;3.92;;;0.75;;
49502;SDS011;35409;48.776;9.204;2023-02-25T08:36:07;5.43;;;0.80;;
49502;SDS011;35409;48.776;9.204;2023-02-25T08:38:37;5.70;;;1.17;;
49502;SDS011;35409;48.776;9.204;2023-02-25T08:41:03;6.78;;;1.13;;
49502;SDS011;35409;48.776;9.204;2023-02-25T08:43:29;4.93;;;1.10;;
49502;SDS011;35409;48.776;9.204;2023-02-25T08:45:56;5.03;;;0.98;;
49502;SDS011;35409;48.776;9.204;2023-02-25T08:48:21;5.88;;;1.40;;
49502;SDS011;35409;48.776;9.204;2023-02-25T08:50:47;11.32;;;1.38;;
49502;SDS011;35409;48.776;9.204;2023-02-25T08:53:13;4.55;;;1.17;;
49502;SDS011;35409;48.776;9.204;2023-02-25T08:55:38;6.57;;;1.10;;
49502;SDS011;35409;48.776;9.204;2023-02-25T08:58:04;5.30;;;1.02;;
49502;SDS011;35409;48.776;9.204;2023-02-25T09:00:31;6.53;;;1.38;;
49502;SDS011;35409;48.776;9.204;2023-02-25T09:02:56;4.85;;;1.15;;
49502;SDS011;35409;48.776;9.204;2023-02-25T09:05:22;10.05;;;1.80;;
49502;SDS011;35409;48.776;9.204;2023-02-25T09:07:49;3.65;;;0.90;;
49502;SDS011;35409;48.776;9.204;2023-02-25T09:10:15;5.18;;;1.00;;
49502;SDS011;35409;48.776;9.204;2023-02-25T09:12:41;7.18;;;1.70;;
49502;SDS011;35409;48.776;9.204;2023-02-25T09:15:08;7.30;;;0.90;;
49502;SDS011;35409;48.776;9.204;2023-02-25T09:17:35;3.33;;;0.60;;
49502;SDS011;35409;48.776;9.204;2023-02-25T09:20:00;5.45;;;0.85;;
49502;SDS011;35409;48.776;9.204;2023-02-25T09:22:30;6.55;;;1.10;;
49502;SDS011;35409;48.776;9.204;2023-02-25T09:24:57;5.60;;;1.10;;
49502;SDS011;35409;48.776;9.204;2023-02-25T09:27:22;15.40;;;1.55;;
49502;SDS011;35409;48.776;9.204;2023-02-25T09:29:48;3.83;;;0.85;;
49502;SDS011;35409;48.776;9.204;2023-02-25T09:32:19;3.70;;;1.00;;
49502;SDS011;35409;48.776;9.204;2023-02-25T09:34:46;3.83;;;1.02;;
49502;SDS011;35409;48.776;9.204;2023-02-25T09:37:15;2.57;;;0.83;;
49502;SDS011;35409;48.776;9.204;2023-02-25T09:39:43;5.80;;;1.00;;
49502;SDS011;35409;48.776;9.204;2023-02-25T09:42:10;4.50;;;0.88;;
49502;SDS011;35409;48.776;9.204;2023-02-25T09:44:42;1.75;;;0.80;;
49502;SDS011;35409;48.776;9.204;2023-02-25T09:49:56;2.50;;;0.30;;
49502;SDS011;35409;48.776;9.204;2023-02-25T09:52:28;1.95;;;0.30;;
49502;SDS011;35409;48.776;9.204;2023-02-25T09:57:39;4.30;;;0.55;;
49502;SDS011;35409;48.776;9.204;2023-02-25T10:00:15;2.92;;;0.45;;
49502;SDS011;35409;48.776;9.204;2023-02-25T10:08:49;1.98;;;0.55;;
49502;SDS011;35409;48.776;9.204;2023-02-25T10:25:27;6.22;;;0.52;;
49502;SDS011;35409;48.776;9.204;2023-02-25T10:28:00;3.00;;;0.50;;
49502;SDS011;35409;48.776;9.204;2023-02-25T10:30:30;1.35;;;0.30;;
49502;SDS011;35409;48.776;9.204;2023-02-25T10:33:23;1.33;;;0.50;;
49502;SDS011;35409;48.776;9.204;2023-02-25T10:35:58;1.80;;;0.85;;
49502;SDS011;35409;48.776;9.204;2023-02-25T10:38:37;0.93;;;0.32;;
49502;SDS011;35409;48.776;9.204;2023-02-25T10:41:06;1.65;;;0.30;;
49502;SDS011;35409;48.776;9.204;2023-02-25T10:43:32;3.42;;;1.52;;
49502;SDS011;35409;48.776;9.204;2023-02-25T10:46:00;2.58;;;0.43;;
49502;SDS011;35409;48.776;9.204;2023-02-25T10:48:33;4.93;;;0.73;;
49502;SDS011;35409;48.776;9.204;2023-02-25T10:51:10;3.72;;;0.60;;
49502;SDS011;35409;48.776;9.204;2023-02-25T10:53:38;1.65;;;0.35;;
49502;SDS011;35409;48.776;9.204;2023-02-25T10:56:24;5.10;;;0.70;;
49502;SDS011;35409;48.776;9.204;2023-02-25T10:59:00;2.88;;;0.55;;
49502;SDS011;35409;48.776;9.204;2023-02-25T11:01:38;4.55;;;0.63;;
49502;SDS011;35409;48.776;9.204;2023-02-25T11:04:09;2.40;;;0.57;;
49502;SDS011;35409;48.776;9.204;2023-02-25T11:06:38;2.15;;;0.90;;
49502;SDS011;35409;48.776;9.204;2023-02-25T11:09:26;3.03;;;0.90;;
49502;SDS011;35409;48.776;9.204;2023-02-25T11:12:08;4.43;;;1.00;;
49502;SDS011;35409;48.776;9.204;2023-02-25T11:14:36;2.17;;;0.60;;
49502;SDS011;35409;48.776;9.204;2023-02-25T11:17:13;2.20;;;0.30;;
49502;SDS011;35409;48.776;9.204;2023-02-25T11:19:48;2.58;;;0.68;;
49502;SDS011;35409;48.776;9.204;2023-02-25T11:22:20;2.78;;;0.50;;
49502;SDS011;35409;48.776;9.204;2023-02-25T11:24:54;2.70;;;0.77;;
49502;SDS011;35409;48.776;9.204;2023-02-25T11:27:34;3.00;;;0.50;;
49502;SDS011;35409;48.776;9.204;2023-02-25T11:32:43;2.20;;;0.70;;
49502;SDS011;35409;48.776;9.204;2023-02-25T11:35:17;2.00;;;0.40;;
49502;SDS011;35409;48.776;9.204;2023-02-25T11:37:47;2.95;;;0.80;;
49502;SDS011;35409;48.776;9.204;2023-02-25T11:40:39;4.13;;;0.90;;
49502;SDS011;35409;48.776;9.204;2023-02-25T11:45:45;4.05;;;1.25;;
49502;SDS011;35409;48.776;9.204;2023-02-25T11:48:19;3.42;;;0.90;;
49502;SDS011;35409;48.776;9.204;2023-02-25T11:51:34;3.92;;;1.30;;
49502;SDS011;35409;48.776;9.204;2023-02-25T11:53:43;3.97;;;1.08;;
49502;SDS011;35409;48.776;9.204;2023-02-25T11:56:35;6.32;;;1.02;;
49502;SDS011;35409;48.776;9.204;2023-02-25T12:07:10;3.17;;;1.00;;
49502;SDS011;35409;48.776;9.204;2023-02-25T12:09:43;2.63;;;0.63;;
49502;SDS011;35409;48.776;9.204;2023-02-25T12:32:04;2.80;;;1.30;;
49502;SDS011;35409;48.776;9.204;2023-02-25T12:34:52;4.95;;;1.27;;
49502;SDS011;35409;48.776;9.204;2023-02-25T12:37:28;6.32;;;1.00;;
49502;SDS011;35409;48.776;9.204;2023-02-25T12:40:03;4.38;;;1.02;;
49502;SDS011;35409;48.776;9.204;2023-02-25T12:43:05;2.80;;;0.98;;
49502;SDS011;35409;48.776;9.204;2023-02-25T12:51:23;3.67;;;1.10;;
49502;SDS011;35409;48.776;9.204;2023-02-25T13:02:59;5.32;;;1.30;;
49502;SDS011;35409;48.776;9.204;2023-02-25T13:13:49;5.15;;;1.67;;
49502;SDS011;35409;48.776;9.204;2023-02-25T13:17:04;4.57;;;1.67;;
49502;SDS011;35409;48.776;9.204;2023-02-25T13:19:59;5.65;;;1.40;;
49502;SDS011;35409;48.776;9.204;2023-02-25T13:25:20;5.75;;;1.20;;
49502;SDS011;35409;48.776;9.204;2023-02-25T13:36:07;4.25;;;1.40;;
49502;SDS011;35409;48.776;9.204;2023-02-25T13:42:05;6.60;;;1.63;;
49502;SDS011;35409;48.776;9.204;2023-02-25T13:44:49;8.05;;;1.75;;
49502;SDS011;35409;48.776;9.204;2023-02-25T14:07:17;5.00;;;0.95;;
49502;SDS011;35409;48.776;9.204;2023-02-25T14:15:51;8.50;;;1.83;;
49502;SDS011;35409;48.776;9.204;2023-02-25T14:32:19;4.55;;;1.20;;
49502;SDS011;35409;48.776;9.204;2023-02-25T14:35:05;7.60;;;1.17;;
49502;SDS011;35409;48.776;9.204;2023-02-25T14:38:01;4.10;;;1.00;;
49502;SDS011;35409;48.776;9.204;2023-02-25T14:40:47;4.20;;;1.60;;
49502;SDS011;35409;48.776;9.204;2023-02-25T14:43:32;5.13;;;1.17;;
49502;SDS011;35409;48.776;9.204;2023-02-25T14:46:00;3.28;;;0.85;;
49502;SDS011;35409;48.776;9.204;2023-02-25T14:48:36;7.03;;;1.33;;
49502;SDS011;35409;48.776;9.204;2023-02-25T14:57:22;8.68;;;0.95;;
49502;SDS011;35409;48.776;9.204;2023-02-25T15:11:38;5.28;;;1.27;;
49502;SDS011;35409;48.776;9.204;2023-02-25T15:14:22;4.30;;;0.77;;
49502;SDS011;35409;48.776;9.204;2023-02-25T15:22:52;7.65;;;1.20;;
49502;SDS011;35409;48.776;9.204;2023-02-25T15:25:37;3.70;;;0.80;;
49502;SDS011;35409;48.776;9.204;2023-02-25T15:33:40;4.32;;;0.90;;
49502;SDS011;35409;48.776;9.204;2023-02-25T15:38:52;6.05;;;1.00;;
49502;SDS011;35409;48.776;9.204;2023-02-25T15:44:25;4.60;;;1.15;;
49502;SDS011;35409;48.776;9.204;2023-02-25T15:52:02;6.53;;;0.90;;
49502;SDS011;35409;48.776;9.204;2023-02-25T15:56:55;5.22;;;0.95;;
49502;SDS011;35409;48.776;9.204;2023-02-25T15:59:41;4.88;;;1.35;;
49502;SDS011;35409;48.776;9.204;2023-02-25T16:04:53;8.60;;;1.63;;
49502;SDS011;35409;48.776;9.204;2023-02-25T16:07:23;6.68;;;1.50;;
49502;SDS011;35409;48.776;9.204;2023-02-25T16:09:58;5.57;;;1.48;;
49502;SDS011;35409;48.776;9.204;2023-02-25T16:12:28;4.80;;;1.45;;
49502;SDS011;35409;48.776;9.204;2023-02-25T16:14:54;4.88;;;1.85;;
49502;SDS011;35409;48.776;9.204;2023-02-25T16:17:24;8.18;;;1.92;;
49502;SDS011;35409;48.776;9.204;2023-02-25T16:20:16;10.05;;;3.55;;
49502;SDS011;35409;48.776;9.204;2023-02-25T16:22:43;14.70;;;6.68;;
49502;SDS011;35409;48.776;9.204;2023-02-25T16:25:12;18.45;;;7.93;;
49502;SDS011;35409;48.776;9.204;2023-02-25T16:30:22;8.10;;;2.05;;
49502;SDS011;35409;48.776;9.204;2023-02-25T16:35:36;6.20;;;2.50;;
49502;SDS011;35409;48.776;9.204;2023-02-25T16:38:26;6.28;;;1.67;;
49502;SDS011;35409;48.776;9.204;2023-02-25T16:41:02;6.75;;;2.38;;
49502;SDS011;35409;48.776;9.204;2023-02-25T16:43:29;8.43;;;1.98;;
49502;SDS011;35409;48.776;9.204;2023-02-25T16:46:00;7.33;;;1.87;;
49502;SDS011;35409;48.776;9.204;2023-02-25T16:48:50;10.80;;;2.38;;
49502;SDS011;35409;48.776;9.204;2023-02-25T16:51:24;10.43;;;2.00;;
49502;SDS011;35409;48.776;9.204;2023-02-25T16:53:57;17.80;;;4.15;;
49502;SDS011;35409;48.776;9.204;2023-02-25T16:56:44;9.80;;;2.80;;
49502;SDS011;35409;48.776;9.204;2023-02-25T17:01:37;7.85;;;1.90;;
49502;SDS011;35409;48.776;9.204;2023-02-25T17:04:16;6.15;;;1.60;;
49502;SDS011;35409;48.776;9.204;2023-02-25T17:07:03;5.50;;;1.75;;
49502;SDS011;35409;48.776;9.204;2023-02-25T17:09:41;5.75;;;1.80;;
49502;SDS011;35409;48.776;9.204;2023-02-25T17:12:13;4.25;;;1.50;;
49502;SDS011;35409;48.776;9.204;2023-02-25T17:14:44;12.65;;;2.20;;
49502;SDS011;35409;48.776;9.204;2023-02-25T17:17:15;4.68;;;2.17;;
49502;SDS011;35409;48.776;9.204;2023-02-25T17:19:46;7.35;;;2.00;;
49502;SDS011;35409;48.776;9.204;2023-02-25T17:22:12;8.45;;;1.80;;
49502;SDS011;35409;48.776;9.204;2023-02-25T17:24:44;5.97;;;1.73;;
49502;SDS011;35409;48.776;9.204;2023-02-25T17:27:10;9.48;;;2.45;;
49502;SDS011;35409;48.776;9.204;2023-02-25T17:29:36;5.72;;;1.60;;
49502;SDS011;35409;48.776;9.204;2023-02-25T17:32:18;9.35;;;2.17;;
49502;SDS011;35409;48.776;9.204;2023-02-25T17:34:44;10.75;;;2.25;;
49502;SDS011;35409;48.776;9.204;2023-02-25T17:37:11;8.55;;;3.53;;
49502;SDS011;35409;48.776;9.204;2023-02-25T17:39:39;5.88;;;1.25;;
49502;SDS011;35409;48.776;9.204;2023-02-25T17:44:52;2.47;;;1.10;;
49502;SDS011;35409;48.776;9.204;2023-02-25T17:47:19;3.45;;;1.30;;
49502;SDS011;35409;48.776;9.204;2023-02-25T17:49:48;6.18;;;1.80;;
49502;SDS011;35409;48.776;9.204;2023-02-25T17:52:19;3.85;;;2.53;;
49502;SDS011;35409;48.776;9.204;2023-02-25T17:54:52;5.90;;;1.70;;
49502;SDS011;35409;48.776;9.204;2023-02-25T17:57:23;4.78;;;2.30;;
49502;SDS011;35409;48.776;9.204;2023-02-25T17:59:52;7.15;;;2.50;;
49502;SDS011;35409;48.776;9.204;2023-02-25T18:02:28;9.30;;;2.55;;
49502;SDS011;35409;48.776;9.204;2023-02-25T18:07:35;7.25;;;2.92;;
49502;SDS011;35409;48.776;9.204;2023-02-25T18:10:02;5.80;;;2.97;;
49502;SDS011;35409;48.776;9.204;2023-02-25T18:12:33;8.57;;;3.10;;
49502;SDS011;35409;48.776;9.204;2023-02-25T18:15:23;8.27;;;2.88;;
49502;SDS011;35409;48.776;9.204;2023-02-25T18:17:49;4.85;;;2.67;;
49502;SDS011;35409;48.776;9.204;2023-02-25T18:23:00;6.65;;;3.13;;
49502;SDS011;35409;48.776;9.204;2023-02-25T18:25:30;4.18;;;3.20;;
49502;SDS011;35409;48.776;9.204;2023-02-25T18:27:58;6.87;;;3.47;;
49502;SDS011;35409;48.776;9.204;2023-02-25T18:30:25;9.18;;;4.55;;
49502;SDS011;35409;48.776;9.204;2023-02-25T18:32:51;5.47;;;3.88;;
49502;SDS011;35409;48.776;9.204;2023-02-25T18:35:18;7.50;;;5.35;;
49502;SDS011;35409;48.776;9.204;2023-02-25T18:37:45;10.95;;;5.72;;